sensor_id;sensor_type;location;lat;lon;timestamp;P1;durP1;ratioP1;P2;durP2;ratioP2
28960;SDS011;16068;42.896;20.868;2023-02-28T00:02:07;60.25;;;29.63;;
28960;SDS011;16068;42.896;20.868;2023-02-28T00:04:53;61.08;;;28.98;;
28960;SDS011;16068;42.896;20.868;2023-02-28T00:07:51;58.78;;;28.95;;
28960;SDS011;16068;42.896;20.868;2023-02-28T00:10:37;61.70;;;29.83;;
28960;SDS011;16068;42.896;20.868;2023-02-28T00:13:25;57.35;;;28.60;;
28960;SDS011;16068;42.896;20.868;2023-02-28T00:16:12;59.20;;;28.88;;
28960;SDS011;16068;42.896;20.868;2023-02-28T00:19:00;58.08;;;29.85;;
28960;SDS011;16068;42.896;20.868;2023-02-28T00:21:46;57.78;;;29.00;;
28960;SDS011;16068;42.896;20.868;2023-02-28T00:24:32;63.63;;;29.52;;
28960;SDS011;16068;42.896;20.868;2023-02-28T00:27:18;57.03;;;28.02;;
28960;SDS011;16068;42.896;20.868;2023-02-28T00:30:04;59.33;;;29.27;;
28960;SDS011;16068;42.896;20.868;2023-02-28T00:32:52;57.58;;;26.77;;
28960;SDS011;16068;42.896;20.868;2023-02-28T00:35:38;54.85;;;26.90;;
28960;SDS011;16068;42.896;20.868;2023-02-28T00:38:27;55.53;;;28.20;;
28960;SDS011;16068;42.896;20.868;2023-02-28T00:41:12;55.50;;;28.75;;
28960;SDS011;16068;42.896;20.868;2023-02-28T00:43:58;60.78;;;28.83;;
28960;SDS011;16068;42.896;20.868;2023-02-28T00:46:44;52.92;;;26.88;;
28960;SDS011;16068;42.896;20.868;2023-02-28T00:49:32;57.85;;;28.00;;
28960;SDS011;16068;42.896;20.868;2023-02-28T00:52:17;55.03;;;27.45;;
28960;SDS011;16068;42.896;20.868;2023-02-28T00:55:03;57.78;;;27.85;;
28960;SDS011;16068;42.896;20.868;2023-02-28T00:57:50;55.53;;;27.27;;
28960;SDS011;16068;42.896;20.868;2023-02-28T01:00:36;55.22;;;27.65;;
28960;SDS011;16068;42.896;20.868;2023-02-28T01:03:22;62.78;;;29.80;;
28960;SDS011;16068;42.896;20.868;2023-02-28T01:06:11;61.45;;;29.10;;
28960;SDS011;16068;42.896;20.868;2023-02-28T01:08:58;58.88;;;29.55;;
28960;SDS011;16068;42.896;20.868;2023-02-28T01:11:44;58.83;;;28.35;;
28960;SDS011;16068;42.896;20.868;2023-02-28T01:14:30;61.40;;;29.92;;
28960;SDS011;16068;42.896;20.868;2023-02-28T01:17:16;56.58;;;27.65;;
28960;SDS011;16068;42.896;20.868;2023-02-28T01:20:02;56.45;;;28.65;;
28960;SDS011;16068;42.896;20.868;2023-02-28T01:22:49;60.08;;;28.45;;
28960;SDS011;16068;42.896;20.868;2023-02-28T01:25:35;61.10;;;29.27;;
28960;SDS011;16068;42.896;20.868;2023-02-28T01:28:22;60.08;;;28.58;;
28960;SDS011;16068;42.896;20.868;2023-02-28T01:31:09;55.53;;;28.45;;
28960;SDS011;16068;42.896;20.868;2023-02-28T01:33:55;58.55;;;28.80;;
28960;SDS011;16068;42.896;20.868;2023-02-28T01:36:45;51.95;;;28.35;;
28960;SDS011;16068;42.896;20.868;2023-02-28T01:39:31;61.78;;;29.67;;
28960;SDS011;16068;42.896;20.868;2023-02-28T01:42:17;61.60;;;29.33;;
28960;SDS011;16068;42.896;20.868;2023-02-28T01:45:08;60.50;;;29.35;;
28960;SDS011;16068;42.896;20.868;2023-02-28T01:48:12;58.70;;;28.60;;
28960;SDS011;16068;42.896;20.868;2023-02-28T01:51:00;63.65;;;28.55;;
28960;SDS011;16068;42.896;20.868;2023-02-28T01:53:56;60.15;;;29.13;;
28960;SDS011;16068;42.896;20.868;2023-02-28T01:56:50;61.13;;;29.60;;
28960;SDS011;16068;42.896;20.868;2023-02-28T01:59:48;59.63;;;28.73;;
28960;SDS011;16068;42.896;20.868;2023-02-28T02:02:44;55.97;;;28.33;;
28960;SDS011;16068;42.896;20.868;2023-02-28T02:05:37;58.35;;;28.38;;
28960;SDS011;16068;42.896;20.868;2023-02-28T02:08:25;60.03;;;29.35;;
28960;SDS011;16068;42.896;20.868;2023-02-28T02:11:15;59.85;;;28.50;;
28960;SDS011;16068;42.896;20.868;2023-02-28T02:26:51;65.97;;;29.85;;
28960;SDS011;16068;42.896;20.868;2023-02-28T02:35:56;55.83;;;27.25;;
28960;SDS011;16068;42.896;20.868;2023-02-28T02:42:00;56.88;;;27.75;;
28960;SDS011;16068;42.896;20.868;2023-02-28T02:44:55;56.60;;;29.27;;
28960;SDS011;16068;42.896;20.868;2023-02-28T02:47:49;56.00;;;27.92;;
28960;SDS011;16068;42.896;20.868;2023-02-28T02:50:37;57.83;;;29.00;;
28960;SDS011;16068;42.896;20.868;2023-02-28T02:53:48;66.03;;;29.00;;
28960;SDS011;16068;42.896;20.868;2023-02-28T02:56:48;61.38;;;29.02;;
28960;SDS011;16068;42.896;20.868;2023-02-28T02:59:34;58.25;;;29.08;;
28960;SDS011;16068;42.896;20.868;2023-02-28T03:02:21;56.97;;;28.40;;
28960;SDS011;16068;42.896;20.868;2023-02-28T03:08:28;61.22;;;28.13;;
28960;SDS011;16068;42.896;20.868;2023-02-28T03:11:15;57.63;;;28.35;;
28960;SDS011;16068;42.896;20.868;2023-02-28T03:19:51;59.50;;;29.02;;
28960;SDS011;16068;42.896;20.868;2023-02-28T03:22:58;56.45;;;27.88;;
28960;SDS011;16068;42.896;20.868;2023-02-28T03:26:06;63.22;;;29.67;;
28960;SDS011;16068;42.896;20.868;2023-02-28T03:29:13;58.47;;;28.90;;
28960;SDS011;16068;42.896;20.868;2023-02-28T03:35:01;60.38;;;29.27;;
28960;SDS011;16068;42.896;20.868;2023-02-28T03:37:53;58.28;;;27.48;;
28960;SDS011;16068;42.896;20.868;2023-02-28T03:40:46;60.13;;;27.15;;
28960;SDS011;16068;42.896;20.868;2023-02-28T03:43:36;62.63;;;29.75;;
28960;SDS011;16068;42.896;20.868;2023-02-28T03:46:24;57.83;;;27.88;;
28960;SDS011;16068;42.896;20.868;2023-02-28T03:49:15;63.33;;;28.33;;
28960;SDS011;16068;42.896;20.868;2023-02-28T03:52:07;56.17;;;27.90;;
28960;SDS011;16068;42.896;20.868;2023-02-28T03:54:56;66.18;;;28.60;;
28960;SDS011;16068;42.896;20.868;2023-02-28T04:01:17;59.55;;;28.88;;
28960;SDS011;16068;42.896;20.868;2023-02-28T04:04:17;65.32;;;28.65;;
28960;SDS011;16068;42.896;20.868;2023-02-28T04:07:04;64.03;;;28.20;;
28960;SDS011;16068;42.896;20.868;2023-02-28T04:09:53;59.67;;;27.85;;
28960;SDS011;16068;42.896;20.868;2023-02-28T04:12:39;63.17;;;27.38;;
28960;SDS011;16068;42.896;20.868;2023-02-28T04:15:25;60.28;;;27.70;;
28960;SDS011;16068;42.896;20.868;2023-02-28T04:18:12;61.53;;;27.95;;
28960;SDS011;16068;42.896;20.868;2023-02-28T04:20:59;64.28;;;28.02;;
28960;SDS011;16068;42.896;20.868;2023-02-28T04:23:46;61.28;;;27.75;;
28960;SDS011;16068;42.896;20.868;2023-02-28T04:26:34;69.93;;;30.15;;
28960;SDS011;16068;42.896;20.868;2023-02-28T04:29:22;66.00;;;27.88;;
28960;SDS011;16068;42.896;20.868;2023-02-28T04:32:20;59.35;;;27.38;;
28960;SDS011;16068;42.896;20.868;2023-02-28T04:35:12;60.08;;;26.00;;
28960;SDS011;16068;42.896;20.868;2023-02-28T04:37:58;59.60;;;27.02;;
28960;SDS011;16068;42.896;20.868;2023-02-28T04:40:45;61.72;;;28.23;;
28960;SDS011;16068;42.896;20.868;2023-02-28T04:43:31;59.72;;;25.33;;
28960;SDS011;16068;42.896;20.868;2023-02-28T04:46:18;66.88;;;29.27;;
28960;SDS011;16068;42.896;20.868;2023-02-28T04:49:05;60.45;;;27.52;;
28960;SDS011;16068;42.896;20.868;2023-02-28T04:51:51;68.70;;;28.45;;
28960;SDS011;16068;42.896;20.868;2023-02-28T04:54:38;57.28;;;26.02;;
28960;SDS011;16068;42.896;20.868;2023-02-28T04:57:25;61.65;;;27.30;;
28960;SDS011;16068;42.896;20.868;2023-02-28T05:00:11;62.88;;;27.83;;
28960;SDS011;16068;42.896;20.868;2023-02-28T05:03:01;61.28;;;27.45;;
28960;SDS011;16068;42.896;20.868;2023-02-28T05:05:47;63.38;;;28.30;;
28960;SDS011;16068;42.896;20.868;2023-02-28T05:08:33;60.70;;;28.13;;
28960;SDS011;16068;42.896;20.868;2023-02-28T05:11:24;62.85;;;26.65;;
28960;SDS011;16068;42.896;20.868;2023-02-28T05:14:24;66.72;;;27.67;;
28960;SDS011;16068;42.896;20.868;2023-02-28T05:17:12;67.78;;;28.75;;
28960;SDS011;16068;42.896;20.868;2023-02-28T05:19:58;65.57;;;29.20;;
28960;SDS011;16068;42.896;20.868;2023-02-28T05:23:01;84.57;;;31.05;;
28960;SDS011;16068;42.896;20.868;2023-02-28T05:25:47;99.07;;;30.77;;
28960;SDS011;16068;42.896;20.868;2023-02-28T05:28:33;73.97;;;29.92;;
28960;SDS011;16068;42.896;20.868;2023-02-28T05:31:19;76.10;;;29.75;;
28960;SDS011;16068;42.896;20.868;2023-02-28T05:34:05;78.25;;;29.55;;
28960;SDS011;16068;42.896;20.868;2023-02-28T05:36:51;67.03;;;28.80;;
28960;SDS011;16068;42.896;20.868;2023-02-28T05:39:37;60.88;;;28.00;;
28960;SDS011;16068;42.896;20.868;2023-02-28T05:42:23;62.58;;;27.60;;
28960;SDS011;16068;42.896;20.868;2023-02-28T05:45:10;86.15;;;31.17;;
28960;SDS011;16068;42.896;20.868;2023-02-28T05:47:58;71.90;;;28.23;;
28960;SDS011;16068;42.896;20.868;2023-02-28T05:50:45;80.10;;;32.03;;
28960;SDS011;16068;42.896;20.868;2023-02-28T05:53:31;94.88;;;30.85;;
28960;SDS011;16068;42.896;20.868;2023-02-28T05:56:17;75.72;;;31.45;;
28960;SDS011;16068;42.896;20.868;2023-02-28T05:59:03;100.50;;;37.63;;
28960;SDS011;16068;42.896;20.868;2023-02-28T06:01:50;100.93;;;33.90;;
28960;SDS011;16068;42.896;20.868;2023-02-28T06:04:39;82.50;;;29.67;;
28960;SDS011;16068;42.896;20.868;2023-02-28T06:07:26;92.28;;;30.73;;
28960;SDS011;16068;42.896;20.868;2023-02-28T06:10:15;83.40;;;30.80;;
28960;SDS011;16068;42.896;20.868;2023-02-28T06:13:01;82.68;;;30.67;;
28960;SDS011;16068;42.896;20.868;2023-02-28T06:16:00;66.47;;;28.65;;
28960;SDS011;16068;42.896;20.868;2023-02-28T06:18:46;62.80;;;29.85;;
28960;SDS011;16068;42.896;20.868;2023-02-28T06:21:32;60.78;;;26.83;;
28960;SDS011;16068;42.896;20.868;2023-02-28T06:24:19;54.00;;;27.63;;
28960;SDS011;16068;42.896;20.868;2023-02-28T06:27:05;64.97;;;31.17;;
28960;SDS011;16068;42.896;20.868;2023-02-28T06:29:53;57.95;;;27.73;;
28960;SDS011;16068;42.896;20.868;2023-02-28T06:32:41;54.35;;;26.38;;
28960;SDS011;16068;42.896;20.868;2023-02-28T06:35:27;65.38;;;31.38;;
28960;SDS011;16068;42.896;20.868;2023-02-28T06:38:22;53.70;;;26.50;;
28960;SDS011;16068;42.896;20.868;2023-02-28T06:41:09;56.67;;;26.85;;
28960;SDS011;16068;42.896;20.868;2023-02-28T06:43:55;50.47;;;24.73;;
28960;SDS011;16068;42.896;20.868;2023-02-28T06:46:41;52.33;;;25.55;;
28960;SDS011;16068;42.896;20.868;2023-02-28T06:49:28;54.45;;;26.98;;
28960;SDS011;16068;42.896;20.868;2023-02-28T06:52:16;53.22;;;26.10;;
28960;SDS011;16068;42.896;20.868;2023-02-28T06:55:03;56.45;;;25.83;;
28960;SDS011;16068;42.896;20.868;2023-02-28T06:57:51;63.90;;;27.15;;
28960;SDS011;16068;42.896;20.868;2023-02-28T07:00:37;57.92;;;25.65;;
28960;SDS011;16068;42.896;20.868;2023-02-28T07:03:25;58.70;;;25.73;;
28960;SDS011;16068;42.896;20.868;2023-02-28T07:06:10;60.15;;;26.70;;
28960;SDS011;16068;42.896;20.868;2023-02-28T07:08:57;51.00;;;26.20;;
28960;SDS011;16068;42.896;20.868;2023-02-28T07:11:43;62.80;;;28.80;;
28960;SDS011;16068;42.896;20.868;2023-02-28T07:14:29;63.28;;;27.98;;
28960;SDS011;16068;42.896;20.868;2023-02-28T07:17:15;60.97;;;27.83;;
28960;SDS011;16068;42.896;20.868;2023-02-28T07:20:01;75.13;;;29.23;;
28960;SDS011;16068;42.896;20.868;2023-02-28T07:22:50;79.07;;;31.63;;
28960;SDS011;16068;42.896;20.868;2023-02-28T07:25:41;75.88;;;29.85;;
28960;SDS011;16068;42.896;20.868;2023-02-28T07:28:28;73.32;;;29.85;;
28960;SDS011;16068;42.896;20.868;2023-02-28T07:31:14;71.82;;;31.48;;
28960;SDS011;16068;42.896;20.868;2023-02-28T07:34:04;65.68;;;30.25;;
28960;SDS011;16068;42.896;20.868;2023-02-28T07:36:52;73.22;;;30.52;;
28960;SDS011;16068;42.896;20.868;2023-02-28T07:39:39;84.20;;;31.48;;
28960;SDS011;16068;42.896;20.868;2023-02-28T07:42:27;78.00;;;30.95;;
28960;SDS011;16068;42.896;20.868;2023-02-28T07:45:13;70.00;;;30.60;;
28960;SDS011;16068;42.896;20.868;2023-02-28T07:47:59;67.10;;;29.92;;
28960;SDS011;16068;42.896;20.868;2023-02-28T07:50:53;71.30;;;31.67;;
28960;SDS011;16068;42.896;20.868;2023-02-28T07:53:40;75.60;;;33.20;;
28960;SDS011;16068;42.896;20.868;2023-02-28T07:56:26;67.18;;;31.77;;
28960;SDS011;16068;42.896;20.868;2023-02-28T07:59:13;63.50;;;31.17;;
28960;SDS011;16068;42.896;20.868;2023-02-28T08:01:59;71.82;;;31.23;;
28960;SDS011;16068;42.896;20.868;2023-02-28T08:04:45;68.43;;;31.50;;
28960;SDS011;16068;42.896;20.868;2023-02-28T08:07:31;70.68;;;33.20;;
28960;SDS011;16068;42.896;20.868;2023-02-28T08:10:17;75.88;;;34.65;;
28960;SDS011;16068;42.896;20.868;2023-02-28T08:13:03;85.88;;;38.17;;
28960;SDS011;16068;42.896;20.868;2023-02-28T08:15:49;89.68;;;39.67;;
28960;SDS011;16068;42.896;20.868;2023-02-28T08:18:35;76.35;;;35.72;;
28960;SDS011;16068;42.896;20.868;2023-02-28T08:21:21;76.30;;;36.60;;
28960;SDS011;16068;42.896;20.868;2023-02-28T08:24:07;83.97;;;36.65;;
28960;SDS011;16068;42.896;20.868;2023-02-28T08:26:53;89.28;;;39.03;;
28960;SDS011;16068;42.896;20.868;2023-02-28T08:29:40;98.68;;;43.58;;
28960;SDS011;16068;42.896;20.868;2023-02-28T08:32:26;92.65;;;39.13;;
28960;SDS011;16068;42.896;20.868;2023-02-28T08:35:14;85.70;;;37.38;;
28960;SDS011;16068;42.896;20.868;2023-02-28T08:38:00;92.03;;;42.55;;
28960;SDS011;16068;42.896;20.868;2023-02-28T08:40:46;84.68;;;39.17;;
28960;SDS011;16068;42.896;20.868;2023-02-28T08:43:35;100.90;;;42.88;;
28960;SDS011;16068;42.896;20.868;2023-02-28T08:46:24;143.20;;;58.63;;
28960;SDS011;16068;42.896;20.868;2023-02-28T08:49:11;96.45;;;44.17;;
28960;SDS011;16068;42.896;20.868;2023-02-28T08:51:57;89.20;;;39.97;;
28960;SDS011;16068;42.896;20.868;2023-02-28T08:54:44;95.30;;;41.55;;
28960;SDS011;16068;42.896;20.868;2023-02-28T08:57:30;109.10;;;47.83;;
28960;SDS011;16068;42.896;20.868;2023-02-28T09:00:16;98.82;;;45.55;;
28960;SDS011;16068;42.896;20.868;2023-02-28T09:03:02;143.73;;;61.10;;
28960;SDS011;16068;42.896;20.868;2023-02-28T09:06:00;109.68;;;47.88;;
28960;SDS011;16068;42.896;20.868;2023-02-28T09:08:45;119.57;;;51.42;;
28960;SDS011;16068;42.896;20.868;2023-02-28T09:11:34;118.00;;;52.80;;
28960;SDS011;16068;42.896;20.868;2023-02-28T09:14:20;116.55;;;54.67;;
28960;SDS011;16068;42.896;20.868;2023-02-28T09:17:06;110.72;;;52.38;;
28960;SDS011;16068;42.896;20.868;2023-02-28T09:19:51;114.60;;;49.72;;
28960;SDS011;16068;42.896;20.868;2023-02-28T09:22:37;97.63;;;45.53;;
28960;SDS011;16068;42.896;20.868;2023-02-28T09:25:23;106.68;;;45.53;;
28960;SDS011;16068;42.896;20.868;2023-02-28T09:28:09;112.03;;;47.58;;
28960;SDS011;16068;42.896;20.868;2023-02-28T09:30:55;104.40;;;47.20;;
28960;SDS011;16068;42.896;20.868;2023-02-28T09:33:43;117.53;;;50.20;;
28960;SDS011;16068;42.896;20.868;2023-02-28T09:36:29;103.22;;;45.50;;
28960;SDS011;16068;42.896;20.868;2023-02-28T09:39:28;113.65;;;45.58;;
28960;SDS011;16068;42.896;20.868;2023-02-28T09:42:18;104.30;;;42.47;;
28960;SDS011;16068;42.896;20.868;2023-02-28T09:45:35;97.13;;;42.13;;
28960;SDS011;16068;42.896;20.868;2023-02-28T09:48:24;99.60;;;43.80;;
28960;SDS011;16068;42.896;20.868;2023-02-28T09:54:22;98.13;;;42.28;;
28960;SDS011;16068;42.896;20.868;2023-02-28T10:00:23;94.90;;;40.35;;
28960;SDS011;16068;42.896;20.868;2023-02-28T10:03:25;100.55;;;40.55;;
28960;SDS011;16068;42.896;20.868;2023-02-28T10:06:17;83.25;;;38.78;;
28960;SDS011;16068;42.896;20.868;2023-02-28T10:09:19;90.68;;;39.30;;
28960;SDS011;16068;42.896;20.868;2023-02-28T10:12:10;83.43;;;36.78;;
28960;SDS011;16068;42.896;20.868;2023-02-28T10:14:57;91.38;;;40.35;;
28960;SDS011;16068;42.896;20.868;2023-02-28T10:17:45;78.65;;;36.80;;
28960;SDS011;16068;42.896;20.868;2023-02-28T10:20:46;88.35;;;39.35;;
28960;SDS011;16068;42.896;20.868;2023-02-28T10:23:34;86.45;;;37.30;;
28960;SDS011;16068;42.896;20.868;2023-02-28T10:26:21;91.57;;;39.60;;
28960;SDS011;16068;42.896;20.868;2023-02-28T10:29:08;84.95;;;39.40;;
28960;SDS011;16068;42.896;20.868;2023-02-28T10:31:54;84.45;;;39.72;;
28960;SDS011;16068;42.896;20.868;2023-02-28T10:34:40;94.43;;;38.72;;
28960;SDS011;16068;42.896;20.868;2023-02-28T10:37:26;82.03;;;37.55;;
28960;SDS011;16068;42.896;20.868;2023-02-28T10:49:07;93.05;;;40.10;;
28960;SDS011;16068;42.896;20.868;2023-02-28T10:52:00;90.70;;;39.83;;
28960;SDS011;16068;42.896;20.868;2023-02-28T10:54:46;87.80;;;38.42;;
28960;SDS011;16068;42.896;20.868;2023-02-28T10:57:37;267.40;;;136.80;;
28960;SDS011;16068;42.896;20.868;2023-02-28T11:00:25;98.47;;;47.08;;
28960;SDS011;16068;42.896;20.868;2023-02-28T11:06:30;95.40;;;38.78;;
28960;SDS011;16068;42.896;20.868;2023-02-28T11:15:35;76.97;;;36.50;;
28960;SDS011;16068;42.896;20.868;2023-02-28T11:18:22;84.35;;;39.20;;
28960;SDS011;16068;42.896;20.868;2023-02-28T11:21:16;76.28;;;36.10;;
28960;SDS011;16068;42.896;20.868;2023-02-28T11:30:39;74.57;;;31.20;;
28960;SDS011;16068;42.896;20.868;2023-02-28T11:33:30;77.50;;;34.25;;
28960;SDS011;16068;42.896;20.868;2023-02-28T11:36:25;74.82;;;34.33;;
28960;SDS011;16068;42.896;20.868;2023-02-28T11:39:13;74.72;;;34.13;;
28960;SDS011;16068;42.896;20.868;2023-02-28T11:48:13;62.92;;;29.27;;
28960;SDS011;16068;42.896;20.868;2023-02-28T11:51:21;73.75;;;31.42;;
28960;SDS011;16068;42.896;20.868;2023-02-28T11:57:16;78.38;;;35.97;;
28960;SDS011;16068;42.896;20.868;2023-02-28T12:00:19;79.72;;;36.45;;
28960;SDS011;16068;42.896;20.868;2023-02-28T12:06:46;81.47;;;35.90;;
28960;SDS011;16068;42.896;20.868;2023-02-28T12:16:29;75.88;;;34.35;;
28960;SDS011;16068;42.896;20.868;2023-02-28T12:19:20;92.80;;;39.20;;
28960;SDS011;16068;42.896;20.868;2023-02-28T12:27:51;126.30;;;41.70;;
28960;SDS011;16068;42.896;20.868;2023-02-28T12:30:42;92.85;;;40.75;;
28960;SDS011;16068;42.896;20.868;2023-02-28T12:33:38;106.30;;;41.38;;
28960;SDS011;16068;42.896;20.868;2023-02-28T12:36:28;97.15;;;43.38;;
28960;SDS011;16068;42.896;20.868;2023-02-28T12:39:16;106.97;;;46.03;;
28960;SDS011;16068;42.896;20.868;2023-02-28T12:42:16;144.07;;;48.20;;
28960;SDS011;16068;42.896;20.868;2023-02-28T12:45:24;86.38;;;40.55;;
28960;SDS011;16068;42.896;20.868;2023-02-28T12:48:19;102.03;;;44.33;;
28960;SDS011;16068;42.896;20.868;2023-02-28T12:51:07;115.28;;;46.30;;
28960;SDS011;16068;42.896;20.868;2023-02-28T12:54:07;98.25;;;41.67;;
28960;SDS011;16068;42.896;20.868;2023-02-28T13:00:20;94.93;;;41.53;;
28960;SDS011;16068;42.896;20.868;2023-02-28T13:09:13;90.13;;;37.30;;
28960;SDS011;16068;42.896;20.868;2023-02-28T13:12:00;81.95;;;35.10;;
28960;SDS011;16068;42.896;20.868;2023-02-28T13:14:47;85.38;;;31.77;;
28960;SDS011;16068;42.896;20.868;2023-02-28T13:17:33;85.88;;;33.60;;
28960;SDS011;16068;42.896;20.868;2023-02-28T13:20:24;81.93;;;32.05;;
28960;SDS011;16068;42.896;20.868;2023-02-28T13:29:21;85.88;;;36.10;;
28960;SDS011;16068;42.896;20.868;2023-02-28T13:35:13;167.15;;;83.30;;
28960;SDS011;16068;42.896;20.868;2023-02-28T13:38:09;177.82;;;83.63;;
28960;SDS011;16068;42.896;20.868;2023-02-28T13:41:21;121.28;;;57.00;;
28960;SDS011;16068;42.896;20.868;2023-02-28T13:44:22;88.75;;;38.08;;
28960;SDS011;16068;42.896;20.868;2023-02-28T14:02:33;81.30;;;34.50;;
28960;SDS011;16068;42.896;20.868;2023-02-28T14:05:26;82.82;;;42.10;;
28960;SDS011;16068;42.896;20.868;2023-02-28T14:08:16;93.15;;;41.40;;
28960;SDS011;16068;42.896;20.868;2023-02-28T14:11:08;83.72;;;35.85;;
28960;SDS011;16068;42.896;20.868;2023-02-28T14:14:03;75.00;;;33.58;;
28960;SDS011;16068;42.896;20.868;2023-02-28T14:16:51;73.70;;;33.22;;
28960;SDS011;16068;42.896;20.868;2023-02-28T14:19:37;74.38;;;35.28;;
28960;SDS011;16068;42.896;20.868;2023-02-28T14:28:32;71.78;;;31.90;;
28960;SDS011;16068;42.896;20.868;2023-02-28T14:31:23;87.07;;;36.10;;
28960;SDS011;16068;42.896;20.868;2023-02-28T14:34:22;68.00;;;30.70;;
28960;SDS011;16068;42.896;20.868;2023-02-28T14:37:10;72.55;;;30.13;;
28960;SDS011;16068;42.896;20.868;2023-02-28T14:40:01;76.38;;;36.22;;
28960;SDS011;16068;42.896;20.868;2023-02-28T14:42:57;70.85;;;34.88;;
28960;SDS011;16068;42.896;20.868;2023-02-28T14:45:51;83.53;;;36.17;;
28960;SDS011;16068;42.896;20.868;2023-02-28T14:48:39;77.28;;;36.58;;
28960;SDS011;16068;42.896;20.868;2023-02-28T14:51:30;89.50;;;37.42;;
28960;SDS011;16068;42.896;20.868;2023-02-28T14:54:16;78.53;;;36.63;;
28960;SDS011;16068;42.896;20.868;2023-02-28T15:06:24;81.82;;;35.85;;
28960;SDS011;16068;42.896;20.868;2023-02-28T15:09:17;81.57;;;38.28;;
28960;SDS011;16068;42.896;20.868;2023-02-28T15:12:04;86.40;;;36.65;;
28960;SDS011;16068;42.896;20.868;2023-02-28T15:14:50;87.50;;;38.40;;
28960;SDS011;16068;42.896;20.868;2023-02-28T15:17:42;75.95;;;36.83;;
28960;SDS011;16068;42.896;20.868;2023-02-28T15:20:31;78.32;;;34.50;;
28960;SDS011;16068;42.896;20.868;2023-02-28T15:23:18;86.47;;;35.70;;
28960;SDS011;16068;42.896;20.868;2023-02-28T15:26:06;79.90;;;33.50;;
28960;SDS011;16068;42.896;20.868;2023-02-28T15:28:56;83.82;;;33.47;;
28960;SDS011;16068;42.896;20.868;2023-02-28T15:31:46;87.35;;;34.88;;
28960;SDS011;16068;42.896;20.868;2023-02-28T15:34:43;91.47;;;37.75;;
28960;SDS011;16068;42.896;20.868;2023-02-28T15:46:25;71.97;;;30.38;;
28960;SDS011;16068;42.896;20.868;2023-02-28T15:49:17;70.03;;;30.80;;
28960;SDS011;16068;42.896;20.868;2023-02-28T15:52:05;65.22;;;31.80;;
28960;SDS011;16068;42.896;20.868;2023-02-28T15:54:53;60.08;;;25.58;;
28960;SDS011;16068;42.896;20.868;2023-02-28T15:57:39;59.13;;;22.70;;
28960;SDS011;16068;42.896;20.868;2023-02-28T16:00:28;51.88;;;22.85;;
28960;SDS011;16068;42.896;20.868;2023-02-28T16:03:27;63.15;;;24.17;;
28960;SDS011;16068;42.896;20.868;2023-02-28T16:06:39;49.15;;;22.70;;
28960;SDS011;16068;42.896;20.868;2023-02-28T16:09:29;54.88;;;23.00;;
28960;SDS011;16068;42.896;20.868;2023-02-28T16:12:20;57.80;;;23.83;;
28960;SDS011;16068;42.896;20.868;2023-02-28T16:18:11;59.08;;;23.52;;
28960;SDS011;16068;42.896;20.868;2023-02-28T16:24:16;53.38;;;22.30;;
28960;SDS011;16068;42.896;20.868;2023-02-28T16:27:04;61.15;;;21.05;;
28960;SDS011;16068;42.896;20.868;2023-02-28T16:29:50;54.47;;;23.00;;
28960;SDS011;16068;42.896;20.868;2023-02-28T16:32:36;59.38;;;25.55;;
28960;SDS011;16068;42.896;20.868;2023-02-28T16:35:22;52.45;;;23.25;;
28960;SDS011;16068;42.896;20.868;2023-02-28T16:38:10;72.93;;;27.35;;
28960;SDS011;16068;42.896;20.868;2023-02-28T16:40:56;66.22;;;28.27;;
28960;SDS011;16068;42.896;20.868;2023-02-28T16:43:50;76.50;;;27.27;;
28960;SDS011;16068;42.896;20.868;2023-02-28T16:46:37;50.15;;;22.10;;
28960;SDS011;16068;42.896;20.868;2023-02-28T16:49:23;64.82;;;25.33;;
28960;SDS011;16068;42.896;20.868;2023-02-28T16:52:09;66.20;;;26.08;;
28960;SDS011;16068;42.896;20.868;2023-02-28T16:54:57;71.82;;;27.35;;
28960;SDS011;16068;42.896;20.868;2023-02-28T16:57:43;59.60;;;24.58;;
28960;SDS011;16068;42.896;20.868;2023-02-28T17:00:30;77.40;;;29.60;;
28960;SDS011;16068;42.896;20.868;2023-02-28T17:12:30;59.83;;;23.65;;
28960;SDS011;16068;42.896;20.868;2023-02-28T17:15:17;61.63;;;25.83;;
28960;SDS011;16068;42.896;20.868;2023-02-28T17:18:04;67.00;;;25.67;;
28960;SDS011;16068;42.896;20.868;2023-02-28T17:20:51;56.03;;;24.00;;
28960;SDS011;16068;42.896;20.868;2023-02-28T17:23:37;59.63;;;24.42;;
28960;SDS011;16068;42.896;20.868;2023-02-28T17:26:31;59.63;;;26.10;;
28960;SDS011;16068;42.896;20.868;2023-02-28T17:29:19;66.75;;;25.95;;
28960;SDS011;16068;42.896;20.868;2023-02-28T17:32:06;66.53;;;25.20;;
28960;SDS011;16068;42.896;20.868;2023-02-28T17:35:02;73.97;;;26.80;;
28960;SDS011;16068;42.896;20.868;2023-02-28T17:37:48;61.47;;;23.55;;
28960;SDS011;16068;42.896;20.868;2023-02-28T17:40:35;51.22;;;21.92;;
28960;SDS011;16068;42.896;20.868;2023-02-28T17:43:22;60.33;;;23.08;;
28960;SDS011;16068;42.896;20.868;2023-02-28T17:46:11;68.07;;;23.38;;
28960;SDS011;16068;42.896;20.868;2023-02-28T17:49:03;62.03;;;22.42;;
28960;SDS011;16068;42.896;20.868;2023-02-28T17:51:49;62.70;;;21.95;;
28960;SDS011;16068;42.896;20.868;2023-02-28T17:54:36;62.72;;;22.25;;
28960;SDS011;16068;42.896;20.868;2023-02-28T17:57:22;52.00;;;20.60;;
28960;SDS011;16068;42.896;20.868;2023-02-28T18:00:10;47.47;;;19.88;;
28960;SDS011;16068;42.896;20.868;2023-02-28T18:03:00;60.47;;;20.90;;
28960;SDS011;16068;42.896;20.868;2023-02-28T18:05:46;54.20;;;21.63;;
28960;SDS011;16068;42.896;20.868;2023-02-28T18:08:32;61.65;;;21.38;;
28960;SDS011;16068;42.896;20.868;2023-02-28T18:11:21;52.35;;;20.15;;
28960;SDS011;16068;42.896;20.868;2023-02-28T18:14:12;52.70;;;19.02;;
28960;SDS011;16068;42.896;20.868;2023-02-28T18:16:59;76.07;;;25.25;;
28960;SDS011;16068;42.896;20.868;2023-02-28T18:19:44;65.00;;;23.55;;
28960;SDS011;16068;42.896;20.868;2023-02-28T18:22:33;61.10;;;21.33;;
28960;SDS011;16068;42.896;20.868;2023-02-28T18:25:22;60.85;;;21.17;;
28960;SDS011;16068;42.896;20.868;2023-02-28T18:28:13;46.20;;;19.92;;
28960;SDS011;16068;42.896;20.868;2023-02-28T18:31:06;56.78;;;22.15;;
28960;SDS011;16068;42.896;20.868;2023-02-28T18:33:55;52.92;;;22.25;;
28960;SDS011;16068;42.896;20.868;2023-02-28T18:36:43;63.42;;;24.38;;
28960;SDS011;16068;42.896;20.868;2023-02-28T18:39:31;68.55;;;23.90;;
28960;SDS011;16068;42.896;20.868;2023-02-28T18:42:19;63.38;;;23.33;;
28960;SDS011;16068;42.896;20.868;2023-02-28T18:45:05;50.40;;;22.38;;
28960;SDS011;16068;42.896;20.868;2023-02-28T18:47:53;57.40;;;24.45;;
28960;SDS011;16068;42.896;20.868;2023-02-28T18:50:39;68.75;;;24.25;;
28960;SDS011;16068;42.896;20.868;2023-02-28T18:53:26;60.78;;;24.48;;
28960;SDS011;16068;42.896;20.868;2023-02-28T18:56:13;59.72;;;22.88;;
28960;SDS011;16068;42.896;20.868;2023-02-28T18:59:03;61.40;;;24.45;;
28960;SDS011;16068;42.896;20.868;2023-02-28T19:01:49;59.50;;;24.67;;
28960;SDS011;16068;42.896;20.868;2023-02-28T19:04:39;65.13;;;25.55;;